Time;durP1;ratioP1;P1;durP2;ratioP2;P2;SDS_P1;SDS_P2;PMS_P1;PMS_P2;Temp;Humidity;BMP_temperature;BMP_pressure;BME280_temperature;BME280_humidity;BME280_pressure;Samples;Min_cycle;Max_cycle;Signal;HPM_P1;HPM_P2
2021/05/21 02:08:38;;;;;;;1.27;0.60;;;16.80;68.70;;;;;;2526991;53;20953;-87
2021/05/21 04:37:38;;;;;;;1.37;0.60;;;17.10;63.40;;;;;;2307829;54;20958;-86
2021/05/21 05:36:34;;;;;;;3.58;0.80;;;18.20;62.40;;;;;;2549606;53;20979;-87
2021/05/21 06:23:49;;;;;;;;;;;;;;;;;;;;;
2021/05/21 08:28:14;;;;;;;;;;;;;;;;;;;;;
2021/05/21 16:13:35;;;;;;;1.52;0.70;;;16.60;67.10;;;;;;2403135;51;22813;-81
2021/05/21 16:16:01;;;;;;;1.95;0.70;;;16.80;68.20;;;;;;2400262;52;21488;-80
2021/05/21 16:18:27;;;;;;;0.68;0.40;;;16.80;68.20;;;;;;2384810;51;20991;-79
2021/05/21 16:20:55;;;;;;;1.00;0.55;;;16.80;68.40;;;;;;2432689;52;21550;-82
2021/05/21 16:23:22;;;;;;;2.03;0.52;;;16.80;68.60;;;;;;2359605;51;20959;-78
2021/05/21 16:25:48;;;;;;;1.05;0.50;;;16.80;68.90;;;;;;2345308;52;20917;-81
2021/05/21 16:28:15;;;;;;;2.17;0.85;;;16.90;69.10;;;;;;2328301;52;20999;-76
2021/05/21 16:30:42;;;;;;;1.67;0.70;;;16.90;68.70;;;;;;2380222;52;21019;-82
2021/05/21 16:33:08;;;;;;;1.73;0.60;;;16.90;68.60;;;;;;2384651;52;22577;-79
2021/05/21 16:35:35;;;;;;;1.67;0.73;;;17.00;68.80;;;;;;2369915;52;20983;-81
2021/05/21 16:38:01;;;;;;;2.53;0.50;;;17.00;68.60;;;;;;2363756;52;21021;-76
2021/05/21 16:40:32;;;;;;;1.70;0.70;;;17.00;68.60;;;;;;2366522;52;21564;-77
2021/05/21 16:43:01;;;;;;;1.60;0.57;;;17.10;68.40;;;;;;2440116;51;20906;-80
2021/05/21 16:45:27;;;;;;;1.27;0.50;;;17.10;68.30;;;;;;2370958;52;20978;-78
2021/05/21 16:47:54;;;;;;;5.18;1.00;;;17.10;68.10;;;;;;2391628;52;20975;-79
2021/05/21 16:50:21;;;;;;;2.87;1.00;;;17.10;67.80;;;;;;2391745;52;20987;-78
2021/05/21 16:52:56;;;;;;;1.87;0.80;;;17.10;67.50;;;;;;2391586;52;21356;-78
2021/05/21 16:55:22;;;;;;;2.20;0.77;;;17.10;67.20;;;;;;2392384;52;21491;-77
2021/05/21 16:57:51;;;;;;;2.10;0.60;;;17.00;66.60;;;;;;2486493;51;21023;-81
2021/05/21 17:00:21;;;;;;;1.85;0.70;;;17.10;66.60;;;;;;2432577;52;21444;-78
2021/05/21 17:02:48;;;;;;;1.58;0.70;;;17.00;66.60;;;;;;2404746;52;20929;-77
2021/05/21 17:05:15;;;;;;;1.60;0.62;;;17.00;66.80;;;;;;2454152;51;20995;-77
2021/05/21 17:07:44;;;;;;;2.08;0.60;;;17.00;66.40;;;;;;2405068;51;20919;-77
2021/05/21 17:10:12;;;;;;;2.05;0.60;;;16.90;66.40;;;;;;2505800;51;21018;-81
2021/05/21 17:12:51;;;;;;;1.70;0.60;;;16.90;66.50;;;;;;2392721;52;20947;-77
2021/05/21 17:40:33;;;;;;;1.50;0.60;;;16.60;66.00;;;;;;2394325;52;21098;-83
2021/05/21 17:43:48;;;;;;;2.05;0.70;;;16.60;66.30;;;;;;2396402;53;21006;-79
2021/05/21 17:46:27;;;;;;;1.35;0.55;;;16.60;66.60;;;;;;2397303;53;21015;-79
2021/05/21 18:12:13;;;;;;;1.10;0.60;;;16.40;67.20;;;;;;2446041;52;21212;-79
2021/05/21 18:43:41;;;;;;;1.67;0.55;;;16.20;67.60;;;;;;2361068;53;21044;-75
2021/05/21 18:46:34;;;;;;;2.15;0.90;;;16.20;66.60;;;;;;2403820;52;20941;-76
2021/05/21 19:01:27;;;;;;;2.70;0.85;;;16.10;67.20;;;;;;2431763;52;20924;-76
2021/05/21 19:03:54;;;;;;;2.87;0.70;;;16.10;67.00;;;;;;2458086;52;21477;-79
2021/05/21 19:06:35;;;;;;;1.27;0.50;;;16.00;66.00;;;;;;2468070;52;20954;-78
2021/05/21 19:09:02;;;;;;;1.50;0.50;;;16.00;66.80;;;;;;2439305;52;21048;-75
2021/05/21 19:20:32;;;;;;;2.17;0.73;;;16.00;66.40;;;;;;2465611;52;20909;-76
2021/05/21 19:23:17;;;;;;;2.97;0.67;;;15.90;66.20;;;;;;2368955;53;21525;-76
2021/05/21 19:25:44;;;;;;;2.03;0.80;;;15.90;65.90;;;;;;2494115;52;21046;-79
2021/05/21 19:29:06;;;;;;;1.77;0.60;;;15.80;65.80;;;;;;2392882;52;20992;-77
2021/05/21 19:31:46;;;;;;;1.70;0.80;;;15.80;65.90;;;;;;2454848;52;20986;-76
2021/05/21 19:37:31;;;;;;;3.10;0.80;;;15.70;65.30;;;;;;2371526;53;21410;-76
2021/05/21 19:40:21;;;;;;;3.37;0.60;;;15.60;65.50;;;;;;2413472;53;20997;-78
2021/05/21 20:14:01;;;;;;;1.37;0.60;;;15.10;64.60;;;;;;2376671;53;20936;-76
2021/05/21 20:16:27;;;;;;;1.37;0.52;;;15.10;64.70;;;;;;2382355;53;21109;-78
2021/05/21 20:18:55;;;;;;;1.70;0.60;;;15.00;64.50;;;;;;2400384;52;20898;-80
2021/05/21 20:21:23;;;;;;;1.83;0.70;;;15.00;64.60;;;;;;2568522;52;20906;-76
2021/05/21 20:23:58;;;;;;;1.90;0.70;;;15.00;64.20;;;;;;2464830;52;21742;-81
2021/05/21 20:26:27;;;;;;;3.00;0.60;;;14.90;64.30;;;;;;2400522;53;21383;-76
2021/05/21 20:29:05;;;;;;;2.33;0.73;;;14.90;64.20;;;;;;2400495;53;20938;-77
2021/05/21 21:01:53;;;;;;;2.25;0.65;;;14.70;64.90;;;;;;2371888;53;20949;-80
2021/05/21 21:13:46;;;;;;;4.05;1.00;;;14.60;63.60;;;;;;2374923;53;20901;-74
2021/05/21 21:16:23;;;;;;;3.80;0.73;;;14.70;63.40;;;;;;2375541;53;20929;-78
2021/05/21 21:19:06;;;;;;;2.85;0.70;;;14.60;63.30;;;;;;2368011;53;20944;-78
2021/05/21 21:21:52;;;;;;;2.42;0.90;;;14.60;63.40;;;;;;2346535;53;20950;-79
2021/05/21 21:41:29;;;;;;;2.28;0.80;;;14.50;63.40;;;;;;2541793;52;20938;-79
2021/05/21 21:44:27;;;;;;;2.47;0.73;;;14.50;62.70;;;;;;2379210;52;21011;-77
2021/05/21 21:50:11;;;;;;;2.45;0.60;;;14.50;62.50;;;;;;2439559;52;21421;-77
2021/05/21 22:00:19;;;;;;;9.90;0.85;;;14.50;62.40;;;;;;2499380;52;20968;-76
2021/05/21 22:03:04;;;;;;;2.22;0.73;;;14.50;62.10;;;;;;2387900;53;21423;-78
2021/05/21 22:05:54;;;;;;;2.35;0.77;;;14.40;61.70;;;;;;2405633;52;21008;-76
2021/05/21 22:08:28;;;;;;;2.28;0.60;;;14.40;62.10;;;;;;2425756;52;21540;-76
2021/05/21 22:20:22;;;;;;;1.37;0.57;;;14.40;61.40;;;;;;2585314;52;21757;-77
2021/05/21 22:28:48;;;;;;;2.22;0.90;;;14.30;61.40;;;;;;2663043;52;20948;-78
2021/05/21 22:31:14;;;;;;;3.55;0.80;;;14.30;62.40;;;;;;2402710;55;21112;-77
2021/05/21 22:33:41;;;;;;;4.18;1.15;;;14.30;62.10;;;;;;2402899;55;22149;-72
2021/05/21 22:36:10;;;;;;;3.05;0.95;;;14.30;61.90;;;;;;2400044;52;20945;-79
2021/05/21 22:38:40;;;;;;;2.30;0.65;;;14.30;61.90;;;;;;2443389;52;20924;-74
2021/05/21 22:41:06;;;;;;;2.30;0.80;;;14.30;62.30;;;;;;2503496;52;20937;-79
2021/05/21 22:43:32;;;;;;;2.45;0.50;;;14.30;61.40;;;;;;2392669;52;21015;-78
2021/05/21 22:46:00;;;;;;;2.42;0.65;;;14.30;62.20;;;;;;2393957;52;21705;-77
2021/05/21 22:48:29;;;;;;;1.80;0.57;;;14.20;61.40;;;;;;2423157;52;21048;-77
2021/05/21 22:50:56;;;;;;;3.08;0.80;;;14.20;61.50;;;;;;2401334;52;21744;-76
2021/05/21 22:53:22;;;;;;;3.35;0.70;;;14.20;61.90;;;;;;2406076;52;21927;-75
2021/05/21 22:55:51;;;;;;;2.00;0.52;;;14.20;61.90;;;;;;2406690;52;21872;-78
2021/05/21 22:58:18;;;;;;;2.03;0.70;;;14.20;61.10;;;;;;2415617;52;20926;-77
2021/05/21 23:00:45;;;;;;;3.25;1.20;;;14.20;61.00;;;;;;2380057;53;20989;-79
2021/05/21 23:03:11;;;;;;;4.43;0.80;;;14.20;61.00;;;;;;2503849;52;20924;-75
2021/05/21 23:05:38;;;;;;;2.92;0.70;;;14.10;60.50;;;;;;2618505;52;20937;-79
2021/05/21 23:08:04;;;;;;;1.40;0.60;;;14.10;60.80;;;;;;2516843;52;21511;-77
2021/05/21 23:10:31;;;;;;;2.45;0.80;;;14.10;61.10;;;;;;2401208;52;20984;-76
2021/05/21 23:12:57;;;;;;;2.72;0.77;;;14.10;60.80;;;;;;2660431;52;21001;-76
2021/05/21 23:15:24;;;;;;;3.37;1.00;;;14.10;61.50;;;;;;2430298;52;20936;-76
2021/05/21 23:18:05;;;;;;;2.40;0.70;;;14.10;61.00;;;;;;2418239;52;21033;-76
2021/05/21 23:20:31;;;;;;;2.80;0.82;;;14.10;61.50;;;;;;2401427;52;20928;-75
2021/05/21 23:22:57;;;;;;;3.60;0.93;;;14.10;61.20;;;;;;2400971;52;20912;-77
2021/05/21 23:25:24;;;;;;;2.58;0.50;;;14.10;61.60;;;;;;2407572;52;20918;-79
2021/05/21 23:27:51;;;;;;;3.87;1.00;;;14.10;62.00;;;;;;2382527;52;21051;-78
2021/05/21 23:30:20;;;;;;;4.87;1.10;;;14.10;61.40;;;;;;2399515;52;20928;-77
2021/05/21 23:32:46;;;;;;;3.17;0.93;;;14.10;61.60;;;;;;2401158;52;21714;-76
2021/05/21 23:35:13;;;;;;;1.37;0.68;;;14.10;61.50;;;;;;2401770;52;20921;-77
2021/05/21 23:37:40;;;;;;;2.65;0.70;;;14.10;62.00;;;;;;2409206;52;20921;-75
2021/05/21 23:40:09;;;;;;;3.42;0.60;;;14.10;61.60;;;;;;2413011;52;20940;-78
2021/05/21 23:42:37;;;;;;;3.30;0.90;;;14.10;61.70;;;;;;2565451;52;20917;-74
2021/05/21 23:45:05;;;;;;;2.37;0.70;;;14.10;60.90;;;;;;2408072;52;20944;-79
2021/05/21 23:47:31;;;;;;;2.47;0.77;;;14.10;61.40;;;;;;2479850;52;20947;-79
2021/05/21 23:49:58;;;;;;;4.22;0.73;;;14.10;61.30;;;;;;2384110;52;21013;-78
2021/05/21 23:52:24;;;;;;;3.42;0.90;;;14.10;61.40;;;;;;2400846;52;21011;-75
2021/05/21 23:54:53;;;;;;;2.90;0.70;;;14.10;61.20;;;;;;2401362;52;20949;-79
2021/05/21 23:57:20;;;;;;;2.40;0.80;;;14.10;62.00;;;;;;2401196;52;20933;-78
2021/05/21 23:59:47;;;;;;;3.03;0.80;;;14.10;61.40;;;;;;2405692;52;20965;-77
